createdAt,value
2022-11-01T00:01:15.136Z,9.49
2022-11-01T00:03:44.207Z,9.49
2022-11-01T00:06:13.895Z,9.41
2022-11-01T00:08:42.488Z,9.45
2022-11-01T00:11:14.199Z,9.49
2022-11-01T00:13:42.594Z,9.44
2022-11-01T00:16:11.027Z,9.44
2022-11-01T00:18:40.155Z,9.43
2022-11-01T00:21:08.479Z,9.45
2022-11-01T00:23:38.576Z,9.51
2022-11-01T00:26:07.299Z,9.46
2022-11-01T00:28:36.046Z,9.40
2022-11-01T00:31:07.645Z,9.43
2022-11-01T00:33:39.397Z,9.47
2022-11-01T00:36:08.827Z,9.46
2022-11-01T00:38:38.709Z,9.47
2022-11-01T00:41:07.518Z,9.49
2022-11-01T00:43:36.754Z,9.48
2022-11-01T00:46:05.983Z,9.50
2022-11-01T00:48:34.338Z,9.49
2022-11-01T00:51:02.708Z,9.40
2022-11-01T00:53:31.009Z,9.40
2022-11-01T00:56:02.992Z,9.30
2022-11-01T00:58:31.364Z,9.29
2022-11-01T01:00:59.815Z,9.34
2022-11-01T01:03:29.148Z,9.41
2022-11-01T01:05:57.794Z,9.28
2022-11-01T01:08:26.885Z,9.29
2022-11-01T01:10:55.374Z,9.34
2022-11-01T01:13:25.247Z,9.45
2022-11-01T01:15:53.549Z,9.33
2022-11-01T01:18:21.868Z,9.38
2022-11-01T01:20:50.402Z,9.29
2022-11-01T01:23:18.808Z,9.21
2022-11-01T01:25:47.114Z,9.18
2022-11-01T01:28:15.542Z,9.26
2022-11-01T01:30:45.247Z,9.27
2022-11-01T01:33:13.629Z,9.15
2022-11-01T01:35:41.950Z,9.14
2022-11-01T01:38:11.079Z,9.16
2022-11-01T01:40:39.471Z,9.22
2022-11-01T01:43:11.007Z,9.14
2022-11-01T01:45:41.078Z,9.14
2022-11-01T01:48:16.123Z,9.18
2022-11-01T01:50:49.378Z,9.13
2022-11-01T01:53:21.271Z,9.09
2022-11-01T01:55:53.821Z,9.09
2022-11-01T01:58:25.481Z,9.06
2022-11-01T02:00:55.442Z,9.02
2022-11-01T02:03:28.527Z,9.07
2022-11-01T02:06:00.324Z,9.12
2022-11-01T02:08:29.123Z,8.98
2022-11-01T02:10:59.842Z,8.90
2022-11-01T02:13:28.675Z,8.93
2022-11-01T02:16:24.092Z,8.96
2022-11-01T02:19:02.264Z,8.91
2022-11-01T02:21:44.781Z,8.96
2022-11-01T02:24:52.073Z,8.97
2022-11-01T02:27:25.498Z,9.06
2022-11-01T02:30:18.474Z,9.09
2022-11-01T02:33:02.159Z,8.96
2022-11-01T02:35:41.720Z,8.80
2022-11-01T02:38:12.157Z,8.76
2022-11-01T02:40:48.375Z,8.76
2022-11-01T02:43:20.134Z,8.83
2022-11-01T02:45:50.769Z,8.84
2022-11-01T02:48:23.258Z,8.88
2022-11-01T02:50:56.347Z,8.88
2022-11-01T02:53:24.904Z,8.92
2022-11-01T02:55:53.808Z,8.95
2022-11-01T02:58:25.055Z,9.00
2022-11-01T03:00:53.524Z,9.00
2022-11-01T03:03:25.409Z,8.94
2022-11-01T03:06:02.465Z,8.93
2022-11-01T03:08:33.473Z,8.95
2022-11-01T03:11:06.920Z,9.00
2022-11-01T03:13:59.098Z,9.00
2022-11-01T03:16:32.217Z,8.98
2022-11-01T03:19:10.499Z,9.00
2022-11-01T03:21:41.612Z,9.05
2022-11-01T03:24:17.992Z,9.08
2022-11-01T03:26:47.359Z,9.08
2022-11-01T03:29:17.391Z,9.11
2022-11-01T03:31:46.103Z,9.06
2022-11-01T03:34:17.622Z,9.11
2022-11-01T03:36:49.687Z,9.07
2022-11-01T03:39:21.649Z,9.07
2022-11-01T03:41:53.201Z,9.08
2022-11-01T03:44:21.595Z,9.06
2022-11-01T03:46:51.069Z,8.98
2022-11-01T03:49:21.467Z,9.01
2022-11-01T03:51:49.823Z,9.11
2022-11-01T03:54:18.065Z,9.09
2022-11-01T03:56:47.259Z,9.07
2022-11-01T03:59:15.743Z,8.99
2022-11-01T04:01:44.165Z,8.92
2022-11-01T04:04:12.714Z,8.94
2022-11-01T04:06:42.600Z,8.94
2022-11-01T04:09:11.114Z,8.93
2022-11-01T04:11:39.518Z,8.96
2022-11-01T04:14:25.130Z,8.91
2022-11-01T04:17:10.897Z,8.87
2022-11-01T04:19:56.325Z,8.95
2022-11-01T04:22:26.903Z,8.94
2022-11-01T04:24:56.219Z,8.92
2022-11-01T04:27:24.612Z,8.88
2022-11-01T04:29:52.983Z,8.89
2022-11-01T04:32:21.266Z,8.82
2022-11-01T04:34:49.535Z,8.88
2022-11-01T04:37:17.846Z,8.88
2022-11-01T04:39:47.614Z,8.91
2022-11-01T04:42:15.977Z,8.92
2022-11-01T04:44:46.871Z,8.99
2022-11-01T04:47:15.228Z,8.99
2022-11-01T04:49:43.524Z,8.91
2022-11-01T04:52:11.812Z,8.94
2022-11-01T04:54:40.068Z,8.94
2022-11-01T04:57:22.739Z,8.93
2022-11-01T04:59:51.237Z,8.87
2022-11-01T05:02:19.909Z,8.93
2022-11-01T05:04:48.262Z,8.92
2022-11-01T05:07:16.681Z,8.92
2022-11-01T05:09:44.985Z,8.98
2022-11-01T05:12:14.795Z,8.94
2022-11-01T05:14:43.333Z,8.87
2022-11-01T05:17:11.834Z,8.77
2022-11-01T05:20:06.337Z,8.82
2022-11-01T05:22:34.625Z,8.82
2022-11-01T05:25:05.473Z,8.84
2022-11-01T05:27:35.116Z,8.95
2022-11-01T05:30:05.295Z,8.97
2022-11-01T05:32:35.875Z,8.98
2022-11-01T05:35:06.524Z,9.00
2022-11-01T05:37:35.993Z,9.02
2022-11-01T05:40:04.877Z,9.02
2022-11-01T05:42:35.899Z,9.08
2022-11-01T05:45:06.148Z,9.05
2022-11-01T05:47:34.690Z,9.04
2022-11-01T05:50:03.049Z,9.07
2022-11-01T05:52:31.739Z,9.18
2022-11-01T05:55:00.747Z,9.34
2022-11-01T05:57:33.553Z,9.08
2022-11-01T06:00:04.510Z,9.02
2022-11-01T06:02:40.504Z,8.82
2022-11-01T06:05:10.058Z,8.75
2022-11-01T06:07:38.622Z,8.94
2022-11-01T06:10:07.998Z,8.85
2022-11-01T06:12:38.790Z,8.88
2022-11-01T06:15:11.834Z,8.93
2022-11-01T06:17:40.379Z,8.70
2022-11-01T06:20:10.529Z,8.68
2022-11-01T06:22:38.912Z,8.67
2022-11-01T06:25:08.309Z,8.66
2022-11-01T06:27:36.754Z,8.66
2022-11-01T06:30:05.586Z,8.85
2022-11-01T06:32:35.288Z,9.02
2022-11-01T06:35:03.509Z,8.98
2022-11-01T06:37:32.229Z,8.87
2022-11-01T06:40:01.151Z,8.93
2022-11-01T06:42:29.422Z,9.07
2022-11-01T06:44:57.722Z,8.94
2022-11-01T06:47:26.057Z,8.90
2022-11-01T06:49:55.777Z,8.96
2022-11-01T06:52:24.022Z,9.02
2022-11-01T06:54:52.399Z,9.03
2022-11-01T06:57:20.731Z,9.21
2022-11-01T06:59:49.056Z,9.12
2022-11-01T07:02:19.698Z,9.16
2022-11-01T07:04:48.563Z,9.34
2022-11-01T07:07:18.416Z,9.34
2022-11-01T07:09:46.706Z,9.50
2022-11-01T07:12:15.368Z,9.63
2022-11-01T07:14:43.911Z,9.68
2022-11-01T07:17:12.405Z,9.75
2022-11-01T07:19:43.943Z,9.83
2022-11-01T07:22:12.256Z,9.92
2022-11-01T07:24:42.096Z,9.92
2022-11-01T07:27:10.536Z,9.97
2022-11-01T07:29:40.538Z,9.83
2022-11-01T07:32:08.875Z,10.00
2022-11-01T07:34:37.163Z,10.04
2022-11-01T07:37:06.840Z,9.72
2022-11-01T07:39:35.469Z,9.82
2022-11-01T07:42:05.296Z,10.13
2022-11-01T07:44:33.558Z,10.24
2022-11-01T07:47:01.824Z,10.40
2022-11-01T07:49:30.125Z,10.31
2022-11-01T07:52:02.654Z,10.28
2022-11-01T07:54:31.303Z,10.25
2022-11-01T07:56:59.577Z,10.27
2022-11-01T07:59:29.322Z,10.31
2022-11-01T08:01:57.674Z,10.26
2022-11-01T08:04:26.206Z,10.47
2022-11-01T08:06:54.432Z,10.68
2022-11-01T08:09:23.315Z,10.47
2022-11-01T08:11:51.867Z,10.64
2022-11-01T08:14:20.310Z,10.53
2022-11-01T08:16:55.713Z,11.20
2022-11-01T08:19:24.615Z,11.56
2022-11-01T08:21:52.908Z,11.48
2022-11-01T08:24:21.208Z,11.63
2022-11-01T08:26:49.825Z,11.78
2022-11-01T08:29:18.192Z,11.70
2022-11-01T08:31:47.650Z,11.58
2022-11-01T08:34:17.352Z,11.60
2022-11-01T08:36:45.686Z,11.47
2022-11-01T08:39:13.946Z,11.20
2022-11-01T08:41:42.581Z,11.10
2022-11-01T08:44:11.524Z,11.02
2022-11-01T08:46:43.113Z,11.11
2022-11-01T08:49:11.506Z,10.94
2022-11-01T08:51:41.546Z,11.25
2022-11-01T08:54:12.285Z,11.56
2022-11-01T08:56:40.573Z,11.66
2022-11-01T08:59:09.267Z,11.84
2022-11-01T09:01:38.788Z,11.97
2022-11-01T09:04:07.636Z,11.66
2022-11-01T09:06:36.501Z,11.56
2022-11-01T09:09:06.492Z,11.74
2022-11-01T09:11:34.786Z,11.96
2022-11-01T09:14:03.179Z,12.45
2022-11-01T09:16:32.822Z,12.66
2022-11-01T09:19:02.026Z,13.03
2022-11-01T09:21:32.060Z,13.02
2022-11-01T09:24:02.805Z,13.10
2022-11-01T09:26:32.544Z,13.25
2022-11-01T09:29:00.850Z,12.48
2022-11-01T09:31:29.824Z,12.57
2022-11-01T09:33:58.818Z,12.21
2022-11-01T09:36:28.662Z,12.34
2022-11-01T09:38:59.389Z,12.36
2022-11-01T09:41:34.259Z,12.72
2022-11-01T09:44:04.847Z,13.47
2022-11-01T09:46:38.445Z,13.93
2022-11-01T09:49:07.441Z,14.54
2022-11-01T09:51:36.252Z,14.99
2022-11-01T09:54:04.536Z,15.26
2022-11-01T09:56:40.621Z,15.63
2022-11-01T09:59:18.667Z,15.40
2022-11-01T10:01:54.170Z,15.68
2022-11-01T10:04:40.579Z,15.78
2022-11-01T10:07:13.842Z,15.76
2022-11-01T10:09:47.880Z,15.73
2022-11-01T10:12:26.731Z,16.40
2022-11-01T10:15:03.050Z,16.69
2022-11-01T10:17:52.427Z,16.86
2022-11-01T10:20:24.214Z,16.93
2022-11-01T10:22:52.640Z,17.24
2022-11-01T10:25:25.181Z,17.55
2022-11-01T10:28:05.673Z,17.69
2022-11-01T10:30:37.984Z,18.07
2022-11-01T10:33:26.001Z,18.14
2022-11-01T10:35:59.201Z,17.98
2022-11-01T10:39:10.409Z,18.21
2022-11-01T10:41:31.181Z,18.14
2022-11-01T10:44:05.079Z,18.21
2022-11-01T10:46:40.055Z,18.34
2022-11-01T10:49:18.189Z,18.86
2022-11-01T10:51:46.699Z,19.35
2022-11-01T10:54:19.330Z,19.28
2022-11-01T10:56:49.507Z,19.53
2022-11-01T10:59:21.927Z,19.67
2022-11-01T11:01:52.174Z,19.87
2022-11-01T11:04:22.833Z,19.92
2022-11-01T11:06:51.558Z,19.94
2022-11-01T11:09:24.678Z,19.75
2022-11-01T11:11:55.208Z,19.86
2022-11-01T11:14:26.261Z,20.67
2022-11-01T11:16:57.458Z,20.50
2022-11-01T11:19:33.714Z,20.95
2022-11-01T11:22:03.451Z,21.19
2022-11-01T11:24:35.683Z,21.00
2022-11-01T11:27:05.763Z,20.73
2022-11-01T11:29:39.333Z,21.01
2022-11-01T11:32:14.842Z,21.60
2022-11-01T11:34:44.627Z,20.60
2022-11-01T11:37:21.541Z,21.15
2022-11-01T11:40:03.524Z,21.81
2022-11-01T11:42:33.259Z,22.16
2022-11-01T11:45:17.006Z,22.23
2022-11-01T11:47:47.058Z,22.55
2022-11-01T11:50:26.004Z,22.76
2022-11-01T11:52:59.160Z,22.31
2022-11-01T11:55:29.555Z,22.85
2022-11-01T12:01:00.545Z,23.07
2022-11-01T12:03:29.536Z,22.51
2022-11-01T12:06:01.096Z,23.38
2022-11-01T12:08:38.989Z,23.14
2022-11-01T12:11:07.832Z,22.88
2022-11-01T12:13:38.442Z,22.84
2022-11-01T12:16:24.652Z,22.89
2022-11-01T12:18:58.614Z,23.41
2022-11-01T12:21:29.733Z,22.95
2022-11-01T12:24:02.117Z,22.15
2022-11-01T12:26:32.989Z,22.68
2022-11-01T12:29:19.096Z,23.15
2022-11-01T12:31:49.564Z,22.95
2022-11-01T12:34:22.030Z,23.29
2022-11-01T12:36:55.684Z,23.64
2022-11-01T12:39:36.983Z,23.87
2022-11-01T12:42:06.208Z,24.10
2022-11-01T12:44:37.409Z,24.10
2022-11-01T12:47:10.954Z,23.55
2022-11-01T12:49:46.131Z,23.39
2022-11-01T12:52:21.606Z,22.88
2022-11-01T12:54:58.948Z,22.24
2022-11-01T12:57:27.368Z,22.00
2022-11-01T12:59:55.866Z,21.99
2022-11-01T13:02:33.727Z,22.21
2022-11-01T13:05:06.122Z,22.18
2022-11-01T13:07:44.158Z,21.47
2022-11-01T13:10:19.918Z,21.53
2022-11-01T13:12:54.007Z,21.47
2022-11-01T13:15:28.293Z,21.66
2022-11-01T13:18:05.905Z,21.71
2022-11-01T13:20:45.198Z,21.54
2022-11-01T13:23:20.061Z,21.36
2022-11-01T13:25:53.280Z,21.25
2022-11-01T13:28:51.016Z,20.80
2022-11-01T13:31:30.323Z,20.77
2022-11-01T13:34:09.998Z,21.04
2022-11-01T13:36:40.362Z,21.16
2022-11-01T13:39:19.504Z,21.62
2022-11-01T13:41:53.779Z,21.19
2022-11-01T13:44:24.651Z,21.47
2022-11-01T13:47:21.406Z,21.23
2022-11-01T13:50:35.122Z,21.27
2022-11-01T13:53:05.937Z,21.11
2022-11-01T13:55:38.151Z,21.14
2022-11-01T13:58:07.203Z,20.86
2022-11-01T14:00:44.465Z,20.76
2022-11-01T14:03:26.846Z,20.46
2022-11-01T14:06:30.757Z,20.18
2022-11-01T14:09:31.812Z,20.11
2022-11-01T14:12:11.609Z,19.86
2022-11-01T14:14:53.402Z,19.55
2022-11-01T14:18:03.249Z,19.20
2022-11-01T14:20:52.768Z,18.67
2022-11-01T14:24:02.719Z,18.58
2022-11-01T14:27:05.109Z,18.53
2022-11-01T14:29:36.656Z,17.73
2022-11-01T14:32:05.337Z,17.45
2022-11-01T14:34:36.231Z,17.37
2022-11-01T14:37:14.013Z,17.41
2022-11-01T14:39:47.336Z,17.13
2022-11-01T14:42:20.885Z,17.15
2022-11-01T14:44:51.575Z,16.50
2022-11-01T14:47:27.137Z,16.27
2022-11-01T14:49:58.509Z,16.30
2022-11-01T14:52:32.373Z,16.37
2022-11-01T14:55:08.043Z,16.11
2022-11-01T14:57:36.908Z,15.89
2022-11-01T15:00:30.854Z,15.62
2022-11-01T15:03:01.523Z,15.68
2022-11-01T15:05:31.536Z,15.32
2022-11-01T15:08:00.859Z,15.26
2022-11-01T15:10:42.353Z,15.26
2022-11-01T15:13:15.614Z,15.13
2022-11-01T15:15:45.400Z,14.82
2022-11-01T15:18:17.229Z,14.74
2022-11-01T15:20:49.500Z,14.62
2022-11-01T15:23:21.253Z,14.59
2022-11-01T15:25:54.135Z,14.41
2022-11-01T15:28:24.166Z,14.46
2022-11-01T15:30:56.675Z,14.38
2022-11-01T15:33:28.054Z,14.33
2022-11-01T15:35:58.085Z,14.21
2022-11-01T15:38:27.389Z,14.29
2022-11-01T15:40:57.173Z,14.25
2022-11-01T15:43:27.962Z,14.17
2022-11-01T15:45:57.692Z,14.13
2022-11-01T15:48:27.595Z,13.86
2022-11-01T15:50:58.262Z,13.93
2022-11-01T15:53:29.992Z,13.87
2022-11-01T15:56:02.764Z,13.82
2022-11-01T15:58:36.086Z,13.75
2022-11-01T16:01:11.070Z,13.76
2022-11-01T16:03:42.644Z,13.67
2022-11-01T16:06:16.181Z,13.74
2022-11-01T16:08:49.365Z,13.62
2022-11-01T16:11:21.604Z,13.58
2022-11-01T16:13:51.895Z,13.62
2022-11-01T16:16:21.033Z,13.45
2022-11-01T16:18:49.289Z,13.40
2022-11-01T16:21:30.726Z,13.40
2022-11-01T16:24:06.840Z,13.35
2022-11-01T16:26:54.971Z,13.24
2022-11-01T16:29:39.646Z,13.33
2022-11-01T16:32:10.412Z,13.34
2022-11-01T16:34:38.896Z,13.28
2022-11-01T16:37:19.632Z,13.25
2022-11-01T16:39:48.442Z,13.18
2022-11-01T16:42:20.102Z,13.19
2022-11-01T16:44:53.146Z,13.27
2022-11-01T16:47:22.078Z,13.13
2022-11-01T16:49:51.490Z,13.14
2022-11-01T16:52:22.831Z,13.04
2022-11-01T16:54:55.304Z,13.05
2022-11-01T16:57:27.424Z,13.03
2022-11-01T16:59:59.497Z,13.06
2022-11-01T17:02:29.925Z,12.97
2022-11-01T17:05:09.671Z,13.00
2022-11-01T17:07:38.433Z,13.12
2022-11-01T17:10:18.057Z,13.06
2022-11-01T17:12:48.699Z,13.04
2022-11-01T17:15:20.857Z,13.26
2022-11-01T17:17:49.763Z,13.07
2022-11-01T17:20:26.648Z,13.02
2022-11-01T17:22:57.134Z,13.02
2022-11-01T17:25:30.897Z,12.99
2022-11-01T17:28:05.098Z,12.95
2022-11-01T17:30:35.470Z,12.91
2022-11-01T17:33:04.827Z,12.88
2022-11-01T17:35:34.711Z,12.86
2022-11-01T17:38:10.934Z,12.87
2022-11-01T17:40:45.618Z,12.87
2022-11-01T17:43:21.457Z,12.87
2022-11-01T17:45:51.957Z,12.85
2022-11-01T17:48:21.492Z,12.94
2022-11-01T17:50:54.177Z,13.15
2022-11-01T17:53:24.112Z,13.10
2022-11-01T17:56:00.037Z,12.92
2022-11-01T17:58:32.845Z,12.90
2022-11-01T18:01:08.485Z,12.84
2022-11-01T18:03:38.324Z,12.89
2022-11-01T18:06:13.860Z,12.86
2022-11-01T18:08:50.225Z,12.92
2022-11-01T18:11:33.077Z,12.81
2022-11-01T18:14:19.938Z,12.76
2022-11-01T18:16:51.932Z,12.80
2022-11-01T18:20:09.564Z,12.89
2022-11-01T18:22:50.343Z,13.07
2022-11-01T18:25:28.497Z,12.87
2022-11-01T18:27:58.896Z,12.82
2022-11-01T18:30:30.028Z,12.80
2022-11-01T18:33:03.210Z,12.77
2022-11-01T18:35:35.703Z,12.75
2022-11-01T18:38:15.004Z,12.72
2022-11-01T18:40:57.312Z,12.73
2022-11-01T18:43:30.401Z,12.74
2022-11-01T18:46:23.973Z,12.96
2022-11-01T18:48:56.784Z,13.18
2022-11-01T18:51:32.272Z,13.07
2022-11-01T18:54:24.085Z,12.91
2022-11-01T18:56:59.006Z,12.82
2022-11-01T18:59:31.274Z,12.92
2022-11-01T19:02:04.928Z,12.83
2022-11-01T19:04:36.873Z,12.91
2022-11-01T19:07:13.572Z,12.89
2022-11-01T19:09:46.263Z,12.82
2022-11-01T19:12:21.669Z,12.87
2022-11-01T19:14:58.211Z,12.76
2022-11-01T19:17:34.817Z,12.73
2022-11-01T19:20:05.893Z,12.77
2022-11-01T19:22:40.563Z,12.90
2022-11-01T19:25:19.522Z,12.87
2022-11-01T19:27:51.231Z,12.85
2022-11-01T19:30:26.269Z,13.01
2022-11-01T19:32:59.426Z,12.94
2022-11-01T19:35:32.063Z,12.85
2022-11-01T19:38:02.579Z,13.01
2022-11-01T19:40:34.543Z,13.04
2022-11-01T19:43:12.544Z,12.91
2022-11-01T19:45:48.086Z,12.88
2022-11-01T19:48:24.259Z,12.79
2022-11-01T19:50:54.725Z,12.75
2022-11-01T19:53:28.456Z,12.70
2022-11-01T19:56:01.985Z,12.76
2022-11-01T19:58:53.479Z,12.67
2022-11-01T20:01:36.574Z,12.63
2022-11-01T20:04:16.055Z,12.59
2022-11-01T20:06:54.278Z,12.61
2022-11-01T20:09:27.705Z,12.69
2022-11-01T20:11:58.625Z,12.73
2022-11-01T20:14:29.858Z,12.77
2022-11-01T20:16:59.483Z,12.79
2022-11-01T20:19:31.773Z,12.74
2022-11-01T20:22:03.014Z,12.72
2022-11-01T20:24:35.195Z,12.75
2022-11-01T20:27:07.855Z,12.60
2022-11-01T20:29:38.028Z,12.60
2022-11-01T20:32:07.663Z,12.59
2022-11-01T20:34:39.438Z,12.50
2022-11-01T20:40:05.847Z,12.61
2022-11-01T20:42:35.445Z,12.54
2022-11-01T20:45:05.803Z,12.45
2022-11-01T20:47:35.560Z,12.50
2022-11-01T20:50:10.172Z,12.46
2022-11-01T20:52:40.576Z,12.44
2022-11-01T20:55:12.121Z,12.36
2022-11-01T20:57:42.898Z,12.39
2022-11-01T21:00:16.257Z,12.54
2022-11-01T21:02:46.139Z,12.49
2022-11-01T21:05:23.788Z,12.48
2022-11-01T21:07:56.169Z,12.42
2022-11-01T21:10:32.286Z,12.39
2022-11-01T21:13:03.605Z,12.35
2022-11-01T21:15:39.941Z,12.48
2022-11-01T21:18:42.557Z,12.44
2022-11-01T21:21:31.039Z,12.32
2022-11-01T21:24:02.810Z,12.39
2022-11-01T21:26:37.383Z,12.44
2022-11-01T21:29:08.975Z,12.39
2022-11-01T21:31:40.506Z,12.35
2022-11-01T21:34:26.170Z,12.37
2022-11-01T21:36:58.083Z,12.44
2022-11-01T21:39:29.905Z,12.39
2022-11-01T21:42:01.302Z,12.31
2022-11-01T21:44:32.136Z,12.14
2022-11-01T21:47:15.415Z,12.48
2022-11-01T21:49:45.194Z,12.31
2022-11-01T21:52:15.331Z,12.40
2022-11-01T21:54:44.911Z,12.25
2022-11-01T21:57:15.263Z,12.47
2022-11-01T21:59:44.199Z,12.62
2022-11-01T22:02:13.907Z,12.49
2022-11-01T22:04:42.396Z,12.31
2022-11-01T22:07:11.234Z,12.53
2022-11-01T22:09:40.934Z,12.56
2022-11-01T22:12:09.362Z,12.36
2022-11-01T22:14:37.623Z,12.33
2022-11-01T22:17:05.918Z,12.31
2022-11-01T22:19:34.269Z,12.32
2022-11-01T22:22:02.569Z,12.27
2022-11-01T22:24:31.200Z,12.30
2022-11-01T22:27:02.232Z,12.30
2022-11-01T22:29:30.455Z,12.29
2022-11-01T22:31:58.797Z,12.21
2022-11-01T22:34:27.098Z,12.25
2022-11-01T22:36:55.679Z,12.17
2022-11-01T22:39:25.233Z,12.16
2022-11-01T22:41:53.889Z,12.18
2022-11-01T22:44:26.814Z,12.14
2022-11-01T22:46:59.126Z,12.10
2022-11-01T22:49:29.193Z,12.08
2022-11-01T22:51:59.534Z,12.07
2022-11-01T22:54:31.603Z,12.03
2022-11-01T22:57:02.841Z,12.10
2022-11-01T22:59:34.387Z,12.11
2022-11-01T23:02:17.520Z,12.10
2022-11-01T23:04:45.859Z,12.08
2022-11-01T23:07:24.022Z,12.08
2022-11-01T23:09:54.576Z,12.06
2022-11-01T23:12:42.594Z,12.06
2022-11-01T23:15:27.561Z,12.06
2022-11-01T23:17:58.970Z,12.05
2022-11-01T23:20:27.312Z,12.07
2022-11-01T23:22:55.583Z,12.11
2022-11-01T23:25:24.068Z,12.05
2022-11-01T23:27:52.441Z,12.08
2022-11-01T23:30:22.569Z,12.06
2022-11-01T23:32:50.813Z,12.12
2022-11-01T23:35:22.440Z,12.00
2022-11-01T23:37:51.494Z,12.00
2022-11-01T23:40:22.058Z,12.05
2022-11-01T23:42:50.746Z,11.94
2022-11-01T23:45:29.920Z,11.85
2022-11-01T23:47:58.615Z,11.93
2022-11-01T23:50:29.435Z,11.91
2022-11-01T23:52:59.919Z,11.96
2022-11-01T23:55:30.175Z,11.90
2022-11-01T23:58:00.866Z,11.73
